Time;durP1;ratioP1;P1;durP2;ratioP2;P2;SDS_P1;SDS_P2;PMS_P1;PMS_P2;Temp;Humidity;BMP_temperature;BMP_pressure;BME280_temperature;BME280_humidity;BME280_pressure;Samples;Min_cycle;Max_cycle;Signal;HPM_P1;HPM_P2
2021/07/05 00:01:18;;;;;;;7.15;4.68;;;;;;;25.07;51.57;100581.25;5049347;28;20037;-66
2021/07/05 00:03:46;;;;;;;6.78;4.63;;;;;;;25.02;51.43;100581.44;5050524;28;20045;-66
2021/07/05 00:06:14;;;;;;;6.00;4.28;;;;;;;24.97;51.83;100572.69;5050561;28;20052;-66
2021/07/05 00:08:42;;;;;;;6.25;4.75;;;;;;;24.93;51.73;100574.66;5049732;28;20498;-66
2021/07/05 00:11:11;;;;;;;7.03;5.03;;;;;;;24.94;51.79;100570.16;5049983;28;20044;-65
2021/07/05 00:13:39;;;;;;;9.00;4.90;;;;;;;24.89;52.16;100564.03;5050289;28;20106;-66
2021/07/05 00:16:07;;;;;;;6.75;5.07;;;;;;;24.86;52.38;100551.56;5050147;28;20049;-66
2021/07/05 00:18:35;;;;;;;6.32;4.75;;;;;;;24.83;52.66;100557.09;5050387;28;20040;-66
2021/07/05 00:21:02;;;;;;;8.60;4.93;;;;;;;24.83;52.72;100553.50;5050355;28;20044;-66
2021/07/05 00:23:30;;;;;;;8.75;5.00;;;;;;;24.82;52.84;100557.16;5049131;28;20406;-65
2021/07/05 00:26:03;;;;;;;8.85;4.70;;;;;;;24.79;52.99;100547.38;5050395;28;20104;-66
2021/07/05 00:28:32;;;;;;;7.15;5.05;;;;;;;24.76;53.08;100543.94;5050681;28;20486;-66
2021/07/05 00:30:59;;;;;;;8.02;4.47;;;;;;;24.74;53.12;100543.16;5049975;28;20033;-65
2021/07/05 00:33:27;;;;;;;7.28;5.10;;;;;;;24.72;53.37;100542.34;5049952;28;20037;-65
2021/07/05 00:35:55;;;;;;;8.25;4.60;;;;;;;24.72;53.46;100543.22;5049082;28;20063;-66
2021/07/05 00:38:23;;;;;;;8.30;4.78;;;;;;;24.76;53.38;100546.63;5049177;28;20049;-66
2021/07/05 00:40:50;;;;;;;6.82;4.47;;;;;;;24.73;53.28;100538.69;5049913;28;20045;-66
2021/07/05 00:43:18;;;;;;;9.55;5.47;;;;;;;24.67;53.65;100538.97;5050236;28;20521;-66
2021/07/05 00:45:50;;;;;;;6.85;5.00;;;;;;;24.63;53.67;100546.31;5049444;28;20041;-66
2021/07/05 00:48:19;;;;;;;7.63;4.70;;;;;;;24.61;53.70;100537.44;5049760;28;20025;-66
2021/07/05 00:50:47;;;;;;;6.30;4.65;;;;;;;24.61;53.80;100542.84;5048711;28;20090;-65
2021/07/05 00:53:15;;;;;;;8.40;5.30;;;;;;;24.58;54.00;100538.44;5049605;28;20059;-65
2021/07/05 00:55:43;;;;;;;11.50;5.00;;;;;;;24.55;53.82;100538.56;5050102;28;20118;-66
2021/07/05 00:58:11;;;;;;;9.32;5.13;;;;;;;24.49;53.92;100538.84;5049704;28;20049;-66
2021/07/05 01:00:39;;;;;;;9.43;4.80;;;;;;;24.42;53.95;100539.19;5050021;28;20064;-66
2021/07/05 01:03:11;;;;;;;8.15;5.00;;;;;;;24.42;53.92;100539.19;5053560;28;20399;-66
2021/07/05 01:05:38;;;;;;;8.70;5.10;;;;;;;24.37;54.29;100539.41;5053094;28;20556;-66
2021/07/05 01:08:07;;;;;;;8.02;5.32;;;;;;;24.37;53.98;100536.72;5053365;28;22650;-66
2021/07/05 01:10:34;;;;;;;7.65;4.82;;;;;;;24.34;54.29;100534.16;5053454;28;20045;-66
2021/07/05 01:13:02;;;;;;;8.25;5.03;;;;;;;24.33;54.64;100534.22;5053132;28;20037;-66
2021/07/05 01:15:33;;;;;;;5.85;4.57;;;;;;;24.38;54.70;100535.78;5053366;28;20059;-66
2021/07/05 01:18:04;;;;;;;7.75;4.60;;;;;;;24.38;54.92;100535.78;5053803;28;20035;-65
2021/07/05 01:20:42;;;;;;;7.03;4.80;;;;;;;24.39;54.90;100531.25;5053015;28;20563;-66
2021/07/05 01:23:14;;;;;;;5.93;4.60;;;;;;;24.41;54.99;100541.06;5052442;28;20044;-66
2021/07/05 01:25:43;;;;;;;7.65;4.72;;;;;;;24.41;54.85;100534.78;5053102;28;20099;-66
2021/07/05 01:28:12;;;;;;;7.15;4.68;;;;;;;24.44;55.14;100537.31;5052960;28;20363;-66
2021/07/05 01:30:41;;;;;;;9.88;5.07;;;;;;;24.42;55.21;100542.78;5053135;28;20045;-66
2021/07/05 01:33:15;;;;;;;8.68;4.65;;;;;;;24.42;55.24;100545.47;5052633;28;20041;-66
2021/07/05 01:35:43;;;;;;;8.18;5.53;;;;;;;24.41;55.29;100534.78;5052811;28;20051;-65
2021/07/05 01:38:18;;;;;;;7.40;4.63;;;;;;;24.43;55.22;100532.84;5052836;28;20047;-65
2021/07/05 01:40:53;;;;;;;11.85;4.95;;;;;;;24.38;55.50;100533.06;5052556;28;20041;-65
2021/07/05 01:43:21;;;;;;;8.23;4.60;;;;;;;24.32;55.79;100530.66;5052873;28;20044;-66
2021/07/05 01:45:50;;;;;;;6.30;4.25;;;;;;;24.33;56.07;100527.00;5052263;28;20131;-65
2021/07/05 01:48:18;;;;;;;8.05;5.05;;;;;;;24.34;56.31;100525.19;5051992;28;20043;-66
2021/07/05 01:50:46;;;;;;;8.38;4.72;;;;;;;24.09;56.67;100515.44;5052646;28;20044;-66
2021/07/05 01:53:25;;;;;;;7.50;5.30;;;;;;;24.01;56.94;100524.84;5052430;28;20037;-66
2021/07/05 01:55:54;;;;;;;8.40;5.60;;;;;;;23.87;57.11;100529.94;5051974;28;20116;-66
2021/07/05 01:58:21;;;;;;;8.60;4.90;;;;;;;23.79;57.14;100522.16;5052945;28;20091;-66
2021/07/05 02:00:50;;;;;;;8.95;4.60;;;;;;;23.84;56.87;100523.72;5052018;28;20036;-66
2021/07/05 02:03:18;;;;;;;7.97;5.22;;;;;;;23.93;56.56;100516.19;5052191;28;20037;-65
2021/07/05 02:05:47;;;;;;;12.48;5.43;;;;;;;23.87;56.56;100513.75;5053158;28;20041;-67
2021/07/05 02:08:18;;;;;;;8.60;4.90;;;;;;;23.82;56.79;100520.25;5052084;28;20041;-66
2021/07/05 02:10:47;;;;;;;7.32;5.25;;;;;;;23.67;57.02;100509.22;5052669;28;20048;-66
2021/07/05 02:13:20;;;;;;;7.60;5.07;;;;;;;23.55;57.38;100520.50;5051880;28;20572;-65
2021/07/05 02:15:50;;;;;;;9.98;5.63;;;;;;;23.62;57.23;100527.41;5051270;28;20041;-66
2021/07/05 02:18:21;;;;;;;7.93;5.30;;;;;;;23.66;57.05;100518.25;5052390;28;20498;-65
2021/07/05 02:20:49;;;;;;;8.48;5.28;;;;;;;23.71;56.93;100517.09;5052383;28;20087;-66
2021/07/05 02:23:20;;;;;;;8.27;5.38;;;;;;;23.67;57.17;100504.72;5052086;28;20037;-65
2021/07/05 02:25:49;;;;;;;8.20;5.18;;;;;;;23.66;57.13;100511.03;5051492;28;20047;-66
2021/07/05 02:28:22;;;;;;;9.00;5.43;;;;;;;23.65;57.16;100509.28;5052750;28;20033;-66
2021/07/05 02:30:51;;;;;;;9.02;5.82;;;;;;;23.48;57.68;100509.13;5051531;28;20041;-66
2021/07/05 02:33:21;;;;;;;7.45;4.75;;;;;;;23.50;57.67;100509.91;5051756;28;20041;-66
2021/07/05 02:35:51;;;;;;;9.75;5.35;;;;;;;23.59;57.37;100509.53;5052088;28;20037;-65
2021/07/05 02:38:25;;;;;;;8.02;5.53;;;;;;;23.59;57.60;100505.97;5051721;28;20127;-66
2021/07/05 02:40:57;;;;;;;6.63;5.25;;;;;;;23.59;57.62;100501.44;5050876;28;20041;-65
2021/07/05 02:43:33;;;;;;;9.68;5.47;;;;;;;23.53;57.71;100511.59;5051600;28;20045;-65
2021/07/05 02:46:02;;;;;;;8.98;5.13;;;;;;;23.50;57.71;100500.97;5052077;28;20482;-67
2021/07/05 02:48:33;;;;;;;7.93;5.38;;;;;;;23.55;57.51;100504.34;5051771;28;20045;-65
2021/07/05 02:51:04;;;;;;;8.55;5.38;;;;;;;23.53;57.52;100496.31;5050717;28;20037;-65
2021/07/05 02:53:34;;;;;;;9.27;5.78;;;;;;;23.39;57.99;100488.78;5051194;28;20402;-66
2021/07/05 02:56:04;;;;;;;9.18;5.65;;;;;;;23.17;58.73;100506.75;5051548;28;20033;-66
2021/07/05 02:58:33;;;;;;;9.38;5.75;;;;;;;23.12;59.03;100508.75;5051262;28;20047;-66
2021/07/05 03:01:04;;;;;;;9.48;5.75;;;;;;;23.14;59.03;100495.22;5050962;28;20041;-67
2021/07/05 03:03:32;;;;;;;8.90;5.63;;;;;;;23.14;59.22;100511.38;5051175;28;20037;-66
2021/07/05 03:06:01;;;;;;;10.98;6.00;;;;;;;23.09;59.51;100499.94;5050923;28;20091;-66
2021/07/05 03:08:29;;;;;;;10.40;6.20;;;;;;;23.15;59.32;100510.47;5051276;28;20041;-66
2021/07/05 03:11:01;;;;;;;10.15;6.10;;;;;;;23.15;59.64;100508.66;5050727;28;20033;-66
2021/07/05 03:13:29;;;;;;;8.80;5.35;;;;;;;23.22;59.41;100503.88;5051074;28;20045;-66
2021/07/05 03:15:58;;;;;;;10.50;6.07;;;;;;;23.23;59.28;100517.31;5051346;28;20494;-66
2021/07/05 03:18:26;;;;;;;8.77;5.80;;;;;;;23.21;59.71;100518.28;5050160;28;20143;-66
2021/07/05 03:20:54;;;;;;;8.93;5.43;;;;;;;23.18;59.96;100521.09;5051385;28;20044;-66
2021/07/05 03:23:25;;;;;;;7.95;5.43;;;;;;;23.24;59.92;100523.53;5050690;28;20037;-65
2021/07/05 03:25:56;;;;;;;10.23;5.53;;;;;;;23.34;59.74;100525.81;5050504;28;20049;-65
2021/07/05 03:28:27;;;;;;;9.38;5.60;;;;;;;23.40;59.49;100524.69;5050794;28;20044;-65
2021/07/05 03:30:59;;;;;;;9.70;5.80;;;;;;;23.39;59.45;100534.56;5049917;28;20086;-66
2021/07/05 03:33:29;;;;;;;7.70;4.97;;;;;;;23.43;59.42;100528.13;5049694;28;20049;-66
2021/07/05 03:35:57;;;;;;;8.52;5.50;;;;;;;23.53;59.36;100520.56;5050975;28;20083;-65
2021/07/05 03:38:24;;;;;;;7.65;4.95;;;;;;;23.62;59.36;100524.72;5050222;28;20044;-65
2021/07/05 03:40:52;;;;;;;11.00;5.03;;;;;;;23.76;59.25;100525.00;5049120;28;20053;-66
2021/07/05 03:43:20;;;;;;;9.10;5.57;;;;;;;23.92;59.20;100522.50;5050157;28;20040;-65
2021/07/05 03:45:50;;;;;;;7.55;4.72;;;;;;;24.11;59.20;100521.66;5050226;28;20128;-65
2021/07/05 03:48:18;;;;;;;7.68;4.63;;;;;;;24.19;59.55;100518.66;5049626;28;20059;-65
2021/07/05 03:50:45;;;;;;;8.95;5.25;;;;;;;24.24;59.82;100527.41;5050628;28;20037;-65
2021/07/05 03:53:13;;;;;;;9.30;4.70;;;;;;;24.39;60.04;100521.34;5049691;28;20061;-66
2021/07/05 03:55:41;;;;;;;6.15;4.13;;;;;;;24.60;59.79;100524.88;5049987;28;20037;-66
2021/07/05 03:58:09;;;;;;;6.13;3.85;;;;;;;24.70;59.38;100528.91;5050505;28;20116;-66
2021/07/05 04:00:43;;;;;;;6.18;4.63;;;;;;;24.85;59.03;100528.19;5049339;28;20102;-66
2021/07/05 04:03:13;;;;;;;7.80;3.95;;;;;;;25.07;58.91;100519.13;5050534;28;20045;-66
2021/07/05 04:05:44;;;;;;;7.65;4.20;;;;;;;25.27;58.44;100517.16;5050343;28;20128;-67
2021/07/05 04:08:12;;;;;;;20.13;5.32;;;;;;;25.49;57.94;100521.53;5049380;28;20060;-66
2021/07/05 04:10:40;;;;;;;6.75;3.67;;;;;;;25.64;57.42;100528.91;5050597;28;20037;-66
2021/07/05 04:13:10;;;;;;;6.13;3.88;;;;;;;25.79;56.56;100528.16;5050342;28;20033;-66
2021/07/05 04:15:38;;;;;;;8.25;3.60;;;;;;;26.01;56.09;100522.47;5049024;28;20099;-67
2021/07/05 04:18:08;;;;;;;6.97;3.75;;;;;;;26.20;55.07;100517.84;5049324;28;20406;-66
2021/07/05 04:20:38;;;;;;;7.32;4.03;;;;;;;26.39;54.43;100521.38;5049743;28;20056;-66
2021/07/05 04:23:05;;;;;;;7.20;3.83;;;;;;;26.58;53.75;100529.41;5049365;28;20041;-66
2021/07/05 04:25:33;;;;;;;5.38;3.40;;;;;;;26.78;53.34;100522.88;5049975;28;20041;-66
2021/07/05 04:28:00;;;;;;;6.20;3.20;;;;;;;27.00;53.05;100522.59;5049577;28;20037;-66
2021/07/05 04:30:29;;;;;;;9.80;3.70;;;;;;;27.29;52.70;100521.81;5049419;28;20495;-67
2021/07/05 04:33:06;;;;;;;11.35;3.90;;;;;;;27.51;52.58;100526.84;5049683;28;20041;-67
2021/07/05 04:35:35;;;;;;;7.65;3.63;;;;;;;27.79;52.46;100528.84;5048433;28;20053;-66
2021/07/05 04:38:06;;;;;;;6.40;3.40;;;;;;;28.09;51.95;100536.03;5041505;28;20037;-66
2021/07/05 04:40:38;;;;;;;5.57;3.72;;;;;;;28.32;51.63;100545.53;5053540;28;20049;-67
2021/07/05 04:43:07;;;;;;;6.32;3.00;;;;;;;28.56;51.18;100537.69;5053613;28;20041;-66
2021/07/05 04:45:35;;;;;;;4.35;3.13;;;;;;;28.79;50.88;100549.88;5053200;28;20041;-67
2021/07/05 04:48:04;;;;;;;7.10;3.28;;;;;;;29.00;50.53;100551.25;5053487;28;20048;-67
2021/07/05 04:50:32;;;;;;;5.80;3.13;;;;;;;29.26;50.48;100555.88;5053722;28;20044;-66
2021/07/05 04:53:01;;;;;;;7.00;3.00;;;;;;;29.63;49.95;100558.91;5053838;28;20044;-67
2021/07/05 04:55:31;;;;;;;6.97;3.50;;;;;;;29.94;49.58;100564.06;5053206;28;20071;-67
2021/07/05 04:58:01;;;;;;;5.40;3.15;;;;;;;30.26;49.08;100571.91;5053638;28;20033;-67
2021/07/05 05:00:30;;;;;;;8.90;3.33;;;;;;;30.60;48.65;100568.56;5053908;28;20044;-67
2021/07/05 05:03:02;;;;;;;8.20;3.40;;;;;;;30.84;48.15;100572.28;5053055;28;20047;-67
2021/07/05 05:05:33;;;;;;;7.82;3.25;;;;;;;31.12;47.78;100562.13;5053452;28;20029;-67
2021/07/05 05:08:06;;;;;;;6.72;2.80;;;;;;;31.46;47.37;100579.59;5053339;28;20052;-66
2021/07/05 05:10:39;;;;;;;8.73;3.00;;;;;;;31.65;47.28;100580.00;5053754;28;20095;-67
2021/07/05 05:13:11;;;;;;;6.57;2.70;;;;;;;31.74;46.96;100573.00;5054047;28;20122;-68
2021/07/05 05:15:39;;;;;;;7.00;2.97;;;;;;;31.72;47.06;100572.22;5034027;28;20072;-67
2021/07/05 05:18:07;;;;;;;6.07;2.72;;;;;;;31.88;46.61;100583.75;5033621;28;20034;-67
2021/07/05 05:20:37;;;;;;;5.68;3.28;;;;;;;31.95;46.04;100571.38;5033890;28;20053;-68
2021/07/05 05:23:09;;;;;;;7.40;3.58;;;;;;;32.10;45.80;100572.91;5041480;28;20041;-67
2021/07/05 05:25:39;;;;;;;6.97;2.95;;;;;;;32.16;45.59;100569.75;5052604;28;20065;-66
2021/07/05 05:28:10;;;;;;;6.55;2.92;;;;;;;32.27;45.12;100564.31;5053365;28;20041;-68
2021/07/05 05:30:38;;;;;;;5.93;2.92;;;;;;;32.49;44.39;100570.84;5054060;28;21186;-68
2021/07/05 05:33:06;;;;;;;8.77;2.72;;;;;;;32.72;44.18;100572.66;5052171;28;20045;-67
2021/07/05 05:35:34;;;;;;;5.75;3.00;;;;;;;33.01;43.54;100584.88;5052904;28;20037;-67
2021/07/05 05:38:02;;;;;;;8.63;2.90;;;;;;;33.29;43.25;100574.41;5052645;28;20036;-67
2021/07/05 05:40:31;;;;;;;7.20;3.28;;;;;;;33.46;43.19;100574.78;5053247;28;20052;-67
2021/07/05 05:43:02;;;;;;;6.25;3.13;;;;;;;33.83;42.19;100571.72;5032816;28;20398;-66
2021/07/05 05:45:30;;;;;;;6.20;2.60;;;;;;;34.02;41.40;100574.66;5036603;28;20041;-66
2021/07/05 05:48:00;;;;;;;5.38;2.55;;;;;;;34.21;40.91;100572.09;5049578;28;20045;-66
2021/07/05 05:50:27;;;;;;;6.18;2.58;;;;;;;34.43;40.29;100570.25;5052455;28;20041;-66
2021/07/05 05:52:55;;;;;;;5.75;2.30;;;;;;;34.69;39.76;100574.31;5051982;28;20037;-67
2021/07/05 05:55:25;;;;;;;5.10;2.53;;;;;;;34.78;39.08;100576.28;5052408;28;20406;-67
2021/07/05 05:57:53;;;;;;;7.40;2.63;;;;;;;34.50;39.75;100577.81;5051723;28;20136;-66
2021/07/05 06:00:24;;;;;;;2.92;2.40;;;;;;;34.46;40.04;100576.34;5052293;28;20047;-67
2021/07/05 06:02:53;;;;;;;6.07;2.58;;;;;;;34.44;39.85;100567.38;5051203;28;20055;-67
2021/07/05 06:05:22;;;;;;;5.10;2.97;;;;;;;34.34;40.22;100563.69;5052802;28;20075;-66
2021/07/05 06:07:50;;;;;;;4.43;2.78;;;;;;;34.29;39.84;100575.06;5052154;28;20033;-66
2021/07/05 06:10:21;;;;;;;5.03;2.70;;;;;;;34.28;39.99;100577.91;5053098;28;20068;-67
2021/07/05 06:12:48;;;;;;;6.05;2.70;;;;;;;34.14;40.11;100575.47;5052443;28;20065;-67
2021/07/05 06:15:17;;;;;;;4.78;2.97;;;;;;;34.14;40.66;100567.25;5051995;28;20053;-67
2021/07/05 06:17:48;;;;;;;7.85;3.35;;;;;;;34.26;40.46;100574.47;5047541;28;20041;-66
2021/07/05 06:20:22;;;;;;;5.32;2.60;;;;;;;34.20;40.55;100572.22;5048832;28;20037;-67
2021/07/05 06:22:51;;;;;;;7.90;2.85;;;;;;;34.25;40.40;100570.84;5051847;28;20405;-66
2021/07/05 06:25:19;;;;;;;9.68;3.03;;;;;;;34.22;40.58;100572.97;5052425;28;20044;-67
2021/07/05 06:27:47;;;;;;;3.65;2.42;;;;;;;34.22;40.64;100567.50;5052045;28;20049;-67
2021/07/05 06:30:17;;;;;;;5.78;2.35;;;;;;;34.43;40.20;100567.50;5052733;28;20522;-67
2021/07/05 06:32:46;;;;;;;7.63;3.45;;;;;;;34.42;40.13;100547.44;5051545;28;20037;-66
2021/07/05 06:35:16;;;;;;;4.85;2.25;;;;;;;34.40;39.15;100552.16;5051089;28;20075;-66
2021/07/05 06:37:45;;;;;;;4.10;1.92;;;;;;;34.85;36.40;100549.16;5048304;28;20055;-67
2021/07/05 06:40:13;;;;;;;5.47;2.30;;;;;;;34.99;35.43;100554.28;5052304;28;20041;-66
2021/07/05 06:42:40;;;;;;;6.40;2.00;;;;;;;35.18;34.82;100551.63;5042940;28;20037;-67
2021/07/05 06:45:09;;;;;;;2.92;2.20;;;;;;;35.35;34.62;100553.72;5051272;28;20041;-67
2021/07/05 06:47:37;;;;;;;4.07;2.00;;;;;;;35.46;34.98;100555.47;5050025;28;20572;-66
2021/07/05 06:50:07;;;;;;;6.65;2.67;;;;;;;35.49;36.50;100556.09;5050626;28;20037;-66
2021/07/05 06:52:35;;;;;;;3.42;2.55;;;;;;;35.11;38.07;100544.97;5050362;28;20048;-68
2021/07/05 06:55:04;;;;;;;6.03;3.30;;;;;;;35.04;38.53;100549.25;5051426;28;20052;-65
2021/07/05 06:57:33;;;;;;;5.05;2.38;;;;;;;34.86;39.64;100551.75;5050466;28;20087;-67
2021/07/05 07:00:07;;;;;;;6.88;2.80;;;;;;;34.97;39.91;100548.06;5048118;28;20025;-66
2021/07/05 07:02:36;;;;;;;6.53;2.60;;;;;;;34.77;40.33;100558.97;5049639;28;20052;-66
2021/07/05 07:05:04;;;;;;;6.72;2.92;;;;;;;34.93;39.82;100557.56;5051528;28;20044;-66
2021/07/05 07:07:36;;;;;;;5.35;2.55;;;;;;;34.89;38.99;100561.59;5050799;28;20041;-66
2021/07/05 07:10:06;;;;;;;4.28;2.10;;;;;;;34.70;39.57;100557.72;5050982;28;20048;-68
2021/07/05 07:12:36;;;;;;;6.22;2.80;;;;;;;34.76;39.54;100557.22;5051084;28;20427;-66
2021/07/05 07:15:05;;;;;;;4.35;2.17;;;;;;;34.87;38.83;100552.63;5051269;28;20049;-67
2021/07/05 07:17:36;;;;;;;6.90;2.58;;;;;;;34.79;38.10;100559.66;5051089;28;20036;-66
2021/07/05 07:20:05;;;;;;;6.28;2.83;;;;;;;35.00;38.25;100556.00;5050277;28;20064;-67
2021/07/05 07:22:37;;;;;;;4.47;2.90;;;;;;;35.10;38.59;100556.94;5048746;28;20044;-66
2021/07/05 07:25:06;;;;;;;5.28;2.53;;;;;;;34.94;38.87;100554.69;5042738;28;20040;-66
2021/07/05 07:27:34;;;;;;;6.28;2.50;;;;;;;35.03;38.88;100551.13;5048994;28;20041;-67
2021/07/05 07:30:03;;;;;;;6.38;3.10;;;;;;;34.93;39.31;100560.31;5050978;28;20049;-66
2021/07/05 07:32:30;;;;;;;4.78;2.42;;;;;;;35.10;38.98;100556.94;5050628;28;20106;-66
2021/07/05 07:34:58;;;;;;;7.65;2.97;;;;;;;35.14;38.74;100562.00;5050154;28;20154;-66
2021/07/05 07:37:26;;;;;;;8.02;2.55;;;;;;;35.06;38.84;100561.81;5049296;28;20041;-67
2021/07/05 07:39:58;;;;;;;5.93;2.65;;;;;;;35.17;38.89;100563.63;5049268;28;20575;-66
2021/07/05 07:42:28;;;;;;;4.88;2.50;;;;;;;35.13;38.73;100564.88;5049344;28;20055;-66
2021/07/05 07:44:56;;;;;;;7.57;2.45;;;;;;;35.04;38.84;100572.09;5049699;28;20049;-67
2021/07/05 07:47:38;;;;;;;5.90;2.33;;;;;;;35.19;38.80;100576.19;5049179;28;20069;-66
2021/07/05 07:50:10;;;;;;;6.53;2.60;;;;;;;35.33;38.13;100572.22;5045245;28;20045;-65
2021/07/05 07:52:39;;;;;;;4.90;2.70;;;;;;;35.02;38.38;100567.72;5049682;28;20170;-66
2021/07/05 07:55:11;;;;;;;4.82;2.40;;;;;;;34.58;39.23;100563.44;5045933;28;20689;-67
2021/07/05 07:57:40;;;;;;;4.70;2.58;;;;;;;34.57;39.61;100579.00;5048217;28;20044;-67
2021/07/05 08:00:10;;;;;;;3.75;2.22;;;;;;;34.76;39.57;100579.16;5049885;28;20040;-66
2021/07/05 08:02:38;;;;;;;5.45;2.83;;;;;;;34.40;40.47;100568.63;5050074;28;20494;-67
2021/07/05 08:05:14;;;;;;;5.50;2.38;;;;;;;34.15;40.41;100575.34;5051569;28;20513;-67
2021/07/05 08:07:47;;;;;;;6.32;2.55;;;;;;;34.06;40.34;100581.63;5045398;28;20045;-66
2021/07/05 08:10:18;;;;;;;5.53;2.20;;;;;;;34.01;40.38;100573.78;5049730;28;20045;-65
2021/07/05 08:12:46;;;;;;;7.97;2.33;;;;;;;34.13;39.83;100571.88;5062391;28;20207;-66
2021/07/05 08:15:16;;;;;;;4.82;2.55;;;;;;;34.37;40.14;100571.66;5062264;28;20113;-66
2021/07/05 08:17:48;;;;;;;5.35;2.60;;;;;;;34.41;40.56;100573.13;5043712;28;20406;-67
2021/07/05 08:20:20;;;;;;;5.85;2.30;;;;;;;34.69;40.37;100571.56;5044652;28;20532;-66
2021/07/05 08:22:49;;;;;;;6.03;2.40;;;;;;;34.54;41.26;100573.78;5044194;28;20143;-66
2021/07/05 08:25:19;;;;;;;7.28;2.75;;;;;;;34.47;41.43;100574.44;5044239;28;20391;-66
2021/07/05 08:27:47;;;;;;;6.65;2.63;;;;;;;34.72;40.95;100576.84;5045517;28;20048;-67
2021/07/05 08:30:15;;;;;;;7.07;2.80;;;;;;;34.77;40.19;100580.03;5043994;28;20052;-66
2021/07/05 08:32:42;;;;;;;7.50;2.45;;;;;;;34.78;39.97;100570.81;5043516;28;20048;-66
2021/07/05 08:35:10;;;;;;;6.38;2.55;;;;;;;34.65;40.96;100578.34;5043572;28;20045;-67
2021/07/05 08:37:38;;;;;;;5.53;2.60;;;;;;;34.35;41.76;100573.66;5043370;28;20856;-66
2021/07/05 08:40:09;;;;;;;3.97;2.10;;;;;;;34.40;41.41;100568.63;5043461;28;20041;-67
2021/07/05 08:42:39;;;;;;;5.47;2.15;;;;;;;34.40;41.14;100565.88;5041206;28;20049;-66
2021/07/05 08:45:11;;;;;;;3.42;2.33;;;;;;;34.33;41.49;100556.47;5043193;28;20060;-68
2021/07/05 08:47:41;;;;;;;4.43;2.10;;;;;;;34.44;41.13;100548.19;5044383;28;20037;-66
2021/07/05 08:50:15;;;;;;;6.45;2.30;;;;;;;34.42;40.42;100557.53;5045322;28;20096;-67
2021/07/05 08:52:44;;;;;;;9.27;2.22;;;;;;;34.72;39.32;100552.16;5045294;28;20376;-67
2021/07/05 08:55:13;;;;;;;7.50;2.20;;;;;;;34.82;39.20;100550.31;5044688;28;20144;-66
2021/07/05 08:57:42;;;;;;;6.00;2.40;;;;;;;34.74;38.82;100559.22;5043880;28;20604;-66
2021/07/05 09:00:12;;;;;;;5.22;2.10;;;;;;;34.53;39.04;100549.25;5043725;28;21531;-66
2021/07/05 09:02:40;;;;;;;10.23;2.55;;;;;;;34.56;39.02;100548.97;5042844;28;20048;-66
2021/07/05 09:05:10;;;;;;;4.78;2.20;;;;;;;34.61;38.44;100555.78;5042894;28;20049;-68
2021/07/05 09:07:57;;;;;;;5.95;1.90;;;;;;;34.73;37.81;100560.22;5045058;28;20036;-67
2021/07/05 09:10:25;;;;;;;5.20;1.88;;;;;;;34.88;37.57;100557.97;5023830;28;20041;-66
2021/07/05 09:13:13;;;;;;;7.47;2.20;;;;;;;35.23;36.80;100551.25;5023561;28;20056;-67
2021/07/05 09:15:43;;;;;;;8.25;2.67;;;;;;;35.31;36.48;100551.41;5024654;28;20037;-66
2021/07/05 09:18:38;;;;;;;3.85;1.90;;;;;;;35.43;36.12;100553.03;5023230;28;20056;-67
2021/07/05 09:21:19;;;;;;;3.63;2.05;;;;;;;35.23;35.95;100557.59;5023736;28;20126;-66
2021/07/05 09:23:56;;;;;;;8.60;1.70;;;;;;;35.21;35.78;100551.38;5027435;28;20384;-66
2021/07/05 09:26:27;;;;;;;4.78;2.20;;;;;;;35.12;37.28;100542.03;5026617;28;20049;-66
2021/07/05 09:28:58;;;;;;;5.30;1.98;;;;;;;35.11;36.93;100545.81;5026750;28;20049;-67
2021/07/05 09:31:41;;;;;;;3.35;1.80;;;;;;;35.06;37.31;100547.22;5027452;28;20068;-66
2021/07/05 09:34:17;;;;;;;4.95;1.83;;;;;;;35.39;36.10;100546.94;5027091;28;20044;-66
2021/07/05 09:36:46;;;;;;;5.53;2.15;;;;;;;35.29;36.22;100537.81;5031418;28;20033;-67
2021/07/05 09:39:16;;;;;;;5.53;1.75;;;;;;;35.21;36.93;100545.88;5027234;28;20085;-66
2021/07/05 09:41:47;;;;;;;4.50;2.00;;;;;;;35.11;37.42;100533.97;5026165;28;20446;-67
2021/07/05 09:44:22;;;;;;;4.28;1.67;;;;;;;35.18;37.29;100535.16;5026389;28;20141;-67
2021/07/05 09:46:55;;;;;;;5.53;1.60;;;;;;;34.95;38.18;100533.59;5027502;28;20048;-67
2021/07/05 09:49:31;;;;;;;4.63;1.77;;;;;;;34.82;37.82;100531.09;5027356;28;20041;-66
2021/07/05 09:52:28;;;;;;;5.57;1.70;;;;;;;34.74;37.94;100536.41;5027518;28;20302;-67
2021/07/05 09:54:58;;;;;;;4.38;1.63;;;;;;;34.70;37.55;100524.81;5028850;28;20132;-66
2021/07/05 09:57:35;;;;;;;5.25;1.58;;;;;;;34.52;37.20;100520.09;5026599;28;20054;-67
2021/07/05 10:00:19;;;;;;;5.10;1.67;;;;;;;34.60;37.04;100528.47;5026702;28;20081;-66
2021/07/05 10:03:02;;;;;;;6.90;1.70;;;;;;;34.90;36.92;100520.31;5026526;28;20049;-67
2021/07/05 10:05:43;;;;;;;3.47;1.45;;;;;;;34.68;36.88;100524.06;5039057;28;20049;-66
2021/07/05 10:08:12;;;;;;;3.90;1.50;;;;;;;34.49;37.36;100515.72;5045895;28;20045;-67
2021/07/05 10:10:43;;;;;;;5.53;1.60;;;;;;;34.29;37.76;100517.47;5048952;28;20056;-66
2021/07/05 10:13:13;;;;;;;3.33;1.30;;;;;;;33.93;38.06;100515.16;5047934;28;20124;-66
2021/07/05 10:15:42;;;;;;;4.18;1.30;;;;;;;33.87;37.60;100497.34;5045678;28;20039;-66
2021/07/05 10:18:10;;;;;;;4.97;1.50;;;;;;;33.76;37.62;100496.53;5045520;28;20041;-66
2021/07/05 10:20:40;;;;;;;5.40;1.63;;;;;;;33.86;37.39;100508.47;5045583;28;20051;-66
2021/07/05 10:23:10;;;;;;;2.60;1.77;;;;;;;34.00;36.32;100502.69;5042776;28;20487;-66
2021/07/05 10:25:41;;;;;;;5.18;1.63;;;;;;;33.70;37.20;100494.28;5044292;28;20045;-66
2021/07/05 10:28:09;;;;;;;4.07;1.33;;;;;;;33.59;37.30;100492.47;5045312;28;20086;-66
2021/07/05 10:30:40;;;;;;;5.95;1.40;;;;;;;33.60;37.33;100491.50;5047813;28;20087;-66
2021/07/05 10:33:11;;;;;;;4.82;1.60;;;;;;;33.57;36.63;100484.38;5046354;28;20045;-66
2021/07/05 10:35:41;;;;;;;5.57;1.60;;;;;;;33.59;36.68;100481.53;5048279;28;20079;-66
2021/07/05 10:38:15;;;;;;;2.85;1.48;;;;;;;33.76;36.68;100482.84;5046931;28;20132;-66
2021/07/05 10:40:46;;;;;;;5.53;1.50;;;;;;;33.70;36.67;100486.94;5047402;28;20517;-65
2021/07/05 10:43:17;;;;;;;4.68;1.50;;;;;;;34.05;36.44;100485.81;5050047;28;20041;-67
2021/07/05 10:45:48;;;;;;;5.70;1.50;;;;;;;34.04;36.32;100474.00;5039164;28;20052;-65
2021/07/05 10:48:41;;;;;;;6.05;1.38;;;;;;;34.45;35.36;100475.88;5044914;28;20032;-65
2021/07/05 10:51:14;;;;;;;3.85;1.40;;;;;;;34.64;35.65;100473.22;5043762;28;20095;-67
2021/07/05 10:53:57;;;;;;;6.13;1.50;;;;;;;34.68;35.44;100474.69;5045946;28;20060;-67
2021/07/05 10:56:36;;;;;;;4.72;1.70;;;;;;;34.74;35.42;100463.19;5045152;28;20041;-67
2021/07/05 10:59:40;;;;;;;3.28;1.65;;;;;;;35.00;34.93;100468.19;5045852;28;20131;-66
2021/07/05 11:02:34;;;;;;;6.25;1.48;;;;;;;35.14;35.62;100470.53;5044288;28;20140;-66
2021/07/05 11:05:27;;;;;;;5.20;1.50;;;;;;;34.90;37.49;100470.91;5044204;28;20064;-67
2021/07/05 11:07:56;;;;;;;5.03;1.70;;;;;;;34.77;36.63;100475.78;5043957;28;20082;-66
2021/07/05 11:10:30;;;;;;;6.50;1.80;;;;;;;34.55;37.20;100467.69;5043714;28;20111;-67
2021/07/05 11:13:01;;;;;;;4.35;1.50;;;;;;;34.65;38.26;100477.72;5042887;28;20044;-68
2021/07/05 11:15:59;;;;;;;6.38;1.77;;;;;;;34.91;36.26;100483.63;5042311;28;20044;-68
2021/07/05 11:19:10;;;;;;;4.00;1.88;;;;;;;35.01;35.97;100472.66;4986738;28;20070;-68
2021/07/05 11:22:04;;;;;;;5.72;1.77;;;;;;;35.27;35.51;100478.53;5046032;28;20107;-68
2021/07/05 11:24:55;;;;;;;;;;;;;;;35.44;34.99;100467.75;5043906;28;20041;-68
2021/07/05 11:27:49;;;;;;;5.15;2.22;;;;;;;35.64;34.77;100470.50;5040158;28;19924;-67
2021/07/05 11:30:29;;;;;;;6.68;1.63;;;;;;;35.91;34.31;100471.53;5044404;28;20041;-67
2021/07/05 11:33:00;;;;;;;3.50;1.30;;;;;;;36.18;33.38;100467.19;5043941;28;20102;-67
2021/07/05 11:35:39;;;;;;;3.47;1.40;;;;;;;36.59;32.24;100465.91;5046518;28;20044;-67
2021/07/05 11:38:25;;;;;;;3.88;1.50;;;;;;;36.62;31.72;100463.75;5048614;28;20043;-67
2021/07/05 11:40:56;;;;;;;4.13;1.63;;;;;;;36.65;31.77;100452.44;5049918;28;20094;-68
2021/07/05 11:43:54;;;;;;;6.65;1.75;;;;;;;36.13;33.05;100447.47;5045081;28;20055;-67